Decoded Metar for KSAC (SACRAMENTO in CA, USA) (IATA:SAC) | Meteo·Mobile Aviation Weather
aviador You're here:

KSAC Decoded Metar

SACRAMENTO in CA, USA
Report Time2018-09-21 10:53:00
UTC Time2018-09-21 11:30:06
Flight Rules vfr VFR
WindCalm
Visibility9999 m
Phenomena:N/A
Clouds:N/A
Expected CloudBase > 1,600 ft AGL from Temp-Dew spread
CeilingNone
Temp13°C (ISA -2)
Dew Point09°C (77% RH)
AAT12.8°C
QNH1012 hPa
Density Alt-3 ft
Elevation36 ft
Report Wrong Elevation
Raw Report
KSAC 211053Z AUTO 00000KT 10SM CLR 13/09 A2988 RMK AO2 SLP118
T01330089=

Extra information for KSAC:More info

Metar Taf Metar & Taf Last 4 Metars F.Rules Stats Wind Profile Meteogram Temp Stats Airport Information Weather charts Add Link Nearby VenuesMetar ALERT Operation Metar Decoded Social comments

AIRNAV info for KSAC